Time;durP1;ratioP1;P1;durP2;ratioP2;P2;SDS_P1;SDS_P2;PMS_P1;PMS_P2;Temp;Humidity;BMP_temperature;BMP_pressure;BME280_temperature;BME280_humidity;BME280_pressure;Samples;Min_cycle;Max_cycle;Signal;HPM_P1;HPM_P2
2021/06/09 10:51:30;;;;;;;4.35;2.25;;;;;;;34.61;22.49;101484.03;5052979;28;20407;-82
2021/06/09 11:03:33;;;;;;;4.43;1.60;;;;;;;27.45;36.07;101441.03;5067628;28;20386;-43
2021/06/09 11:06:05;;;;;;;428.50;120.72;;;;;;;27.63;37.81;101440.94;5067262;28;20083;-45
2021/06/09 11:08:30;;;;;;;19.90;4.80;;;;;;;28.52;34.78;101444.75;5066762;28;20080;-44
2021/06/09 11:10:57;;;;;;;76.38;17.83;;;;;;;29.69;32.97;101437.75;5058211;28;20138;-55
2021/06/09 11:13:30;;;;;;;31.25;7.30;;;;;;;31.07;29.96;101432.06;5052591;28;20494;-47
2021/06/09 11:16:06;;;;;;;100.70;29.13;;;;;;;32.20;28.33;101426.00;5051272;28;20471;-54
2021/06/09 11:18:53;;;;;;;45.53;16.38;;;;;;;32.80;27.68;101429.19;5080741;28;20025;-61
2021/06/09 11:22:08;;;;;;;71.25;24.77;;;;;;;32.98;27.28;101418.63;5052069;28;20434;-47
2021/06/09 11:25:17;;;;;;;50.28;17.83;;;;;;;32.54;27.63;101427.97;5064773;28;20052;-47
2021/06/09 11:28:35;;;;;;;47.83;17.70;;;;;;;31.53;29.37;101423.69;5068099;28;20043;-49
2021/06/09 11:45:22;;;;;;;4.03;2.13;;;;;;;27.13;35.91;101431.84;5120246;27;20366;-89
2021/06/09 11:47:47;;;;;;;3.15;1.80;;;;;;;27.15;33.98;101443.31;5102920;28;20027;-90
2021/06/09 11:50:30;;;;;;;3.55;1.83;;;;;;;27.52;39.41;101443.94;5099701;28;20042;-90
2021/06/09 11:53:13;;;;;;;2.58;1.60;;;;;;;28.45;37.09;101432.94;5101089;28;20482;-90
2021/06/09 11:55:43;;;;;;;6.13;2.50;;;;;;;28.57;29.36;101431.53;5084853;28;20035;-91
2021/06/09 11:58:14;;;;;;;3.22;1.80;;;;;;;28.22;35.57;101428.19;5083615;28;20035;-91
2021/06/09 12:01:18;;;;;;;5.22;2.50;;;;;;;28.01;41.83;101427.84;5098103;27;20043;-90
2021/06/09 12:03:43;;;;;;;3.97;2.20;;;;;;;27.50;38.51;101430.63;5083320;28;20158;-91
2021/06/09 12:06:14;;;;;;;4.35;2.30;;;;;;;27.44;40.10;101430.41;5085358;28;20131;-90
2021/06/09 12:08:40;;;;;;;4.28;2.33;;;;;;;26.80;44.66;101429.94;5091628;28;20509;-90
2021/06/09 12:11:05;;;;;;;6.07;2.65;;;;;;;25.97;45.33;101430.34;5082815;28;20028;-91
2021/06/09 12:13:31;;;;;;;4.15;2.20;;;;;;;25.35;40.78;101429.34;5083956;28;20021;-91
2021/06/09 12:16:13;;;;;;;6.57;2.38;;;;;;;25.05;47.69;101426.75;5090972;28;20028;-90
2021/06/09 12:18:38;;;;;;;3.53;1.90;;;;;;;24.67;46.30;101421.53;5084314;28;20336;-91
2021/06/09 12:21:11;;;;;;;5.50;2.70;;;;;;;24.47;45.70;101424.25;5088839;28;20020;-91
2021/06/09 12:23:37;;;;;;;4.25;2.55;;;;;;;24.51;51.67;101412.25;5094386;28;20027;-90
2021/06/09 12:26:04;;;;;;;6.03;2.72;;;;;;;24.72;47.28;101406.66;5102718;28;20477;-90
2021/06/09 12:28:29;;;;;;;5.55;2.72;;;;;;;24.87;49.14;101407.00;5104611;28;20028;-90
2021/06/09 12:30:58;;;;;;;5.25;2.25;;;;;;;25.03;47.36;101420.69;5102059;28;20020;-91
2021/06/09 12:33:38;;;;;;;4.65;2.50;;;;;;;25.07;47.27;101421.22;5095882;28;20044;-90
2021/06/09 12:36:14;;;;;;;7.10;3.00;;;;;;;25.09;47.03;101411.16;5083848;28;20193;-91
2021/06/09 12:38:40;;;;;;;8.35;3.05;;;;;;;24.99;45.46;101413.91;5083928;28;20483;-90
2021/06/09 12:41:10;;;;;;;3.50;2.22;;;;;;;24.99;46.95;101410.34;5084359;28;20052;-91
2021/06/09 12:43:36;;;;;;;6.15;2.80;;;;;;;24.93;48.59;101402.91;5084249;28;20483;-90
2021/06/09 12:46:01;;;;;;;3.75;2.30;;;;;;;24.88;47.04;101410.53;5083780;28;20043;-90
2021/06/09 12:48:27;;;;;;;4.82;2.80;;;;;;;25.31;46.31;101406.41;5083965;28;20027;-91
2021/06/09 12:50:57;;;;;;;5.50;2.65;;;;;;;25.45;49.14;101393.28;5084285;28;20433;-91
2021/06/09 12:53:27;;;;;;;4.03;2.40;;;;;;;25.47;46.54;101395.81;5099906;28;20359;-90
2021/06/09 12:56:02;;;;;;;4.70;2.58;;;;;;;25.33;46.72;101402.56;5094962;28;20121;-91
2021/06/09 12:58:29;;;;;;;4.55;2.45;;;;;;;24.98;50.04;101412.19;5090718;28;20501;-91
2021/06/09 13:00:56;;;;;;;4.82;2.97;;;;;;;24.59;48.72;101400.75;5090768;28;20020;-90
2021/06/09 13:03:37;;;;;;;5.25;2.80;;;;;;;24.45;49.97;101401.22;5078888;28;20029;-91
2021/06/09 13:06:05;;;;;;;5.13;2.50;;;;;;;24.67;46.09;101405.38;5073580;28;20139;-90
2021/06/09 13:08:38;;;;;;;5.68;2.60;;;;;;;24.98;49.47;101406.81;5080086;28;20462;-90
2021/06/09 13:11:16;;;;;;;4.80;2.65;;;;;;;25.09;46.36;101396.84;5078095;28;20065;-90
2021/06/09 13:13:44;;;;;;;4.53;2.78;;;;;;;25.52;47.01;101390.81;5073235;28;20032;-90
2021/06/09 13:16:14;;;;;;;4.00;2.38;;;;;;;25.67;43.08;101393.81;5075185;28;20033;-90
2021/06/09 13:18:44;;;;;;;5.20;3.10;;;;;;;25.69;41.57;101392.69;5071298;28;20125;-90
2021/06/09 13:21:19;;;;;;;5.50;2.65;;;;;;;25.72;46.28;101392.38;5088793;28;20021;-90
2021/06/09 13:23:46;;;;;;;5.45;2.78;;;;;;;25.58;42.03;101384.00;5089491;28;20020;-90
2021/06/09 13:26:13;;;;;;;5.68;2.70;;;;;;;25.64;43.34;101386.94;5089964;28;20031;-90
2021/06/09 13:28:39;;;;;;;11.52;3.45;;;;;;;25.49;48.78;101378.50;5086687;28;20429;-90
2021/06/09 13:31:04;;;;;;;5.47;2.97;;;;;;;25.09;46.96;101380.72;5088385;28;20078;-91
2021/06/09 13:33:29;;;;;;;6.13;3.53;;;;;;;24.77;47.43;101382.00;5089299;28;20078;-91
2021/06/09 13:35:55;;;;;;;6.38;3.53;;;;;;;24.47;49.05;101377.72;5073702;28;20032;-90
2021/06/09 13:38:21;;;;;;;5.93;3.15;;;;;;;24.38;50.52;101376.75;5086152;28;20024;-90
2021/06/09 13:40:46;;;;;;;6.25;3.42;;;;;;;24.37;52.09;101369.66;5088081;28;20066;-90
2021/06/09 13:43:12;;;;;;;5.18;3.08;;;;;;;24.24;48.54;101372.69;5088290;28;20016;-90
2021/06/09 13:45:40;;;;;;;5.82;3.38;;;;;;;24.37;50.85;101369.66;5072288;28;20032;-90
2021/06/09 13:48:09;;;;;;;5.10;3.22;;;;;;;24.64;49.78;101376.97;5067794;28;20043;-90
2021/06/09 13:50:37;;;;;;;6.30;2.80;;;;;;;24.90;49.62;101369.06;5070360;28;20063;-93
2021/06/09 13:53:06;;;;;;;5.63;2.88;;;;;;;25.02;47.74;101373.25;5085286;28;20256;-90
2021/06/09 13:55:38;;;;;;;5.53;3.22;;;;;;;25.13;47.41;101357.94;5088239;28;20032;-90
2021/06/09 13:58:03;;;;;;;7.07;2.97;;;;;;;25.26;43.35;101356.59;5071094;28;20028;-90
2021/06/09 14:00:32;;;;;;;5.10;2.70;;;;;;;25.20;40.03;101356.34;5068651;28;20031;-91
2021/06/09 14:02:58;;;;;;;8.27;2.85;;;;;;;25.22;47.57;101360.56;5069630;28;20123;-90
2021/06/09 14:05:24;;;;;;;4.88;2.65;;;;;;;25.29;46.01;101350.03;5070131;28;20534;-90
2021/06/09 14:08:02;;;;;;;5.47;2.88;;;;;;;25.29;48.75;101352.75;5066635;28;20033;-90
2021/06/09 14:10:32;;;;;;;5.05;2.50;;;;;;;25.28;40.69;101351.06;5076511;28;20032;-89
2021/06/09 14:12:58;;;;;;;4.43;2.67;;;;;;;25.45;44.43;101349.38;5069362;28;20016;-90
2021/06/09 14:15:27;;;;;;;5.50;3.05;;;;;;;25.28;46.22;101342.97;5080373;28;20029;-91
2021/06/09 14:17:54;;;;;;;6.88;3.25;;;;;;;25.04;45.97;101341.69;5088461;28;20416;-90
2021/06/09 14:20:28;;;;;;;6.30;3.15;;;;;;;24.92;46.68;101339.34;5086940;28;20040;-90
2021/06/09 14:22:56;;;;;;;5.63;3.22;;;;;;;24.70;48.40;101348.66;5080618;28;20137;-90
2021/06/09 14:25:22;;;;;;;5.85;3.13;;;;;;;24.60;48.72;101337.94;5083012;28;20028;-90
2021/06/09 14:28:04;;;;;;;5.85;3.22;;;;;;;24.42;49.94;101337.03;5078876;28;20308;-91
2021/06/09 14:30:37;;;;;;;10.52;3.28;;;;;;;24.39;44.10;101339.97;5067404;28;20056;-90
2021/06/09 14:33:24;;;;;;;8.35;3.40;;;;;;;24.30;47.41;101330.94;5075169;28;20211;-90
2021/06/09 14:36:03;;;;;;;7.88;3.30;;;;;;;24.10;44.84;101327.44;5086263;28;20031;-91
2021/06/09 14:38:38;;;;;;;6.45;2.92;;;;;;;23.82;46.67;101326.50;5088400;28;20102;-91
2021/06/09 14:41:29;;;;;;;7.90;3.40;;;;;;;23.65;47.41;101320.81;5088494;28;20297;-91
2021/06/09 14:44:05;;;;;;;10.48;2.97;;;;;;;23.53;47.55;101324.66;5088697;28;20036;-91
2021/06/09 14:46:58;;;;;;;6.60;3.13;;;;;;;23.45;47.48;101310.22;5085576;28;20061;-90
2021/06/09 14:49:42;;;;;;;6.22;2.92;;;;;;;23.39;47.24;101320.56;5071140;28;20032;-90
2021/06/09 14:52:16;;;;;;;9.73;3.72;;;;;;;23.25;44.96;101307.56;5082760;28;20093;-89
2021/06/09 14:54:42;;;;;;;8.10;3.75;;;;;;;23.20;46.90;101306.28;5084368;28;20016;-90
2021/06/09 14:57:07;;;;;;;6.03;3.42;;;;;;;23.20;48.31;101308.94;5077463;28;20103;-90
2021/06/09 14:59:46;;;;;;;5.07;3.20;;;;;;;23.29;49.60;101308.97;5086367;28;20035;-90
2021/06/09 15:02:12;;;;;;;11.77;3.42;;;;;;;23.27;53.02;101308.25;5081270;28;20024;-90
2021/06/09 15:04:37;;;;;;;7.18;2.95;;;;;;;23.26;51.47;101300.34;5074063;28;20046;-90
2021/06/09 15:07:05;;;;;;;7.25;3.45;;;;;;;23.12;48.06;101306.97;5050797;28;20067;-90
2021/06/09 15:09:30;;;;;;;5.55;3.45;;;;;;;22.97;49.26;101306.50;5068707;28;20062;-90
2021/06/09 15:11:58;;;;;;;6.82;3.25;;;;;;;22.90;51.62;101305.31;5075002;28;20044;-93
2021/06/09 15:14:23;;;;;;;8.48;3.45;;;;;;;22.83;53.30;101299.66;5068474;28;20040;-89
2021/06/09 15:16:49;;;;;;;7.47;3.67;;;;;;;22.75;53.08;101304.03;5088677;28;20082;-89
2021/06/09 15:19:14;;;;;;;9.02;4.35;;;;;;;22.75;49.64;101296.81;5085415;28;20027;-87
2021/06/09 15:21:39;;;;;;;5.93;3.42;;;;;;;22.92;50.02;101306.91;5087161;28;20368;-88
2021/06/09 15:24:05;;;;;;;5.03;2.95;;;;;;;23.03;52.68;101299.75;5084975;28;20063;-88
2021/06/09 15:26:30;;;;;;;6.85;3.35;;;;;;;22.92;51.12;101304.25;5076669;28;20031;-89
2021/06/09 15:28:57;;;;;;;8.93;4.07;;;;;;;22.81;51.76;101307.00;5069342;28;20233;-88
2021/06/09 15:31:23;;;;;;;7.30;3.53;;;;;;;22.70;52.55;101307.97;5069308;28;20533;-88
2021/06/09 15:33:49;;;;;;;7.22;3.92;;;;;;;22.67;52.97;101304.72;5066692;28;20115;-89
2021/06/09 15:36:14;;;;;;;6.45;3.67;;;;;;;22.69;53.08;101308.09;5080916;28;20032;-89
2021/06/09 15:38:39;;;;;;;8.57;4.18;;;;;;;22.66;50.74;101308.34;5082798;28;20024;-87
2021/06/09 15:41:05;;;;;;;8.68;5.05;;;;;;;22.65;51.74;101312.88;5084877;28;20044;-89
2021/06/09 15:43:34;;;;;;;8.20;4.03;;;;;;;22.57;54.40;101314.53;5076924;28;20040;-88
2021/06/09 15:45:59;;;;;;;11.40;6.00;;;;;;;22.45;49.68;101316.44;5087353;28;20027;-88
2021/06/09 15:48:25;;;;;;;10.63;4.63;;;;;;;22.44;54.92;101315.59;5085159;28;20307;-88
2021/06/09 15:50:50;;;;;;;10.35;4.60;;;;;;;22.43;50.17;101311.25;5087049;28;20546;-88
2021/06/09 15:53:16;;;;;;;7.30;4.00;;;;;;;22.33;53.85;101312.19;5086156;28;20076;-89
2021/06/09 15:55:41;;;;;;;7.40;4.13;;;;;;;22.28;51.72;101317.91;5079017;28;20510;-87
2021/06/09 15:58:06;;;;;;;11.20;4.43;;;;;;;22.24;52.38;101321.84;5072870;28;20081;-88
2021/06/09 16:00:32;;;;;;;7.55;4.68;;;;;;;22.33;50.17;101315.69;4715540;28;9999675;-88
2021/06/09 16:02:57;;;;;;;7.80;3.60;;;;;;;22.34;51.58;101313.88;5055914;28;20039;-88
2021/06/09 16:05:22;;;;;;;7.43;3.80;;;;;;;22.31;54.27;101319.47;5065209;28;20027;-88
2021/06/09 16:07:48;;;;;;;6.70;3.72;;;;;;;22.23;53.20;101322.81;5071183;28;20036;-88
2021/06/09 16:10:13;;;;;;;7.20;3.40;;;;;;;22.10;52.76;101322.16;5064118;28;20467;-87
2021/06/09 16:12:39;;;;;;;6.60;3.35;;;;;;;22.12;52.22;101313.00;5069032;28;20345;-88
2021/06/09 16:15:05;;;;;;;7.85;3.53;;;;;;;22.04;53.08;101323.50;5067347;28;20028;-88
2021/06/09 16:17:30;;;;;;;7.50;4.10;;;;;;;21.96;51.73;101320.66;5073802;28;20043;-87
2021/06/09 16:19:56;;;;;;;7.32;3.75;;;;;;;21.97;52.42;101320.50;5083509;28;20360;-87
2021/06/09 16:22:21;;;;;;;6.38;3.40;;;;;;;21.95;53.60;101332.34;5073578;28;20051;-87
2021/06/09 16:24:46;;;;;;;8.70;3.50;;;;;;;21.83;55.27;101322.66;5069358;28;20062;-88
2021/06/09 16:27:12;;;;;;;8.20;3.60;;;;;;;21.70;53.96;101325.53;5063583;28;20028;-88
2021/06/09 16:29:38;;;;;;;6.10;2.90;;;;;;;21.63;53.32;101319.84;5045969;28;20495;-88
2021/06/09 16:32:05;;;;;;;5.88;3.20;;;;;;;21.56;51.67;101325.84;5080595;28;20476;-88
2021/06/09 16:34:31;;;;;;;5.22;2.58;;;;;;;21.49;51.76;101320.16;5086588;28;20024;-88
2021/06/09 16:36:56;;;;;;;4.72;2.78;;;;;;;21.47;53.98;101325.63;5087570;28;20035;-88
2021/06/09 16:39:21;;;;;;;7.75;3.10;;;;;;;21.56;51.27;101328.50;5072828;28;20036;-88
2021/06/09 16:41:47;;;;;;;6.30;2.53;;;;;;;21.49;51.59;101312.97;5087250;28;20028;-88
2021/06/09 16:44:12;;;;;;;7.28;3.03;;;;;;;21.44;51.33;101314.34;5069275;28;20035;-87
2021/06/09 16:46:38;;;;;;;9.50;3.50;;;;;;;21.40;53.00;101320.91;5084213;28;20036;-88
2021/06/09 16:49:03;;;;;;;7.88;2.70;;;;;;;21.33;51.21;101319.66;5084527;28;20028;-87
2021/06/09 16:51:28;;;;;;;5.07;2.67;;;;;;;21.34;52.35;101322.28;5061764;28;20035;-88
2021/06/09 16:53:59;;;;;;;8.48;2.60;;;;;;;21.27;54.05;101315.69;5068291;28;20149;-88
2021/06/09 16:56:44;;;;;;;8.00;2.63;;;;;;;21.26;55.44;101328.22;5083555;28;20557;-88
2021/06/09 16:59:09;;;;;;;7.28;4.18;;;;;;;21.24;53.23;101319.47;5085400;28;20493;-88
2021/06/09 17:01:35;;;;;;;7.38;3.28;;;;;;;21.19;52.13;101315.47;5067102;28;20343;-89
2021/06/09 17:04:01;;;;;;;9.32;3.80;;;;;;;21.14;53.66;101325.69;5077576;28;20237;-88
2021/06/09 17:06:27;;;;;;;6.57;3.60;;;;;;;21.18;52.39;101319.13;5070855;28;20109;-88
2021/06/09 17:08:52;;;;;;;9.35;4.15;;;;;;;;;;5077807;28;20075;-88
2021/06/09 17:11:20;;;;;;;9.25;5.07;;;;;;;21.11;50.84;101313.44;5072583;28;20028;-88
2021/06/09 17:13:45;;;;;;;6.97;4.13;;;;;;;21.12;53.53;101315.13;5084439;28;20035;-88
2021/06/09 17:16:11;;;;;;;8.38;4.35;;;;;;;21.06;54.16;101320.97;5080771;28;20035;-88
2021/06/09 17:18:36;;;;;;;8.43;4.55;;;;;;;20.98;51.83;101323.41;5083603;28;20115;-88
2021/06/09 17:21:02;;;;;;;10.68;5.93;;;;;;;20.95;48.28;101318.31;5077838;28;20024;-87
2021/06/09 17:23:27;;;;;;;9.25;5.20;;;;;;;21.01;50.37;101317.81;5085789;28;20142;-88
2021/06/09 17:25:53;;;;;;;9.00;4.57;;;;;;;20.94;53.66;101338.00;5083899;28;20116;-88
2021/06/09 17:28:18;;;;;;;6.47;3.80;;;;;;;20.85;51.26;101326.22;5072377;28;20155;-87
